Time,TemperatureF,DewpointF,PressureIn,WindDirection,WindDirectionDegrees,WindSpeedMPH,WindSpeedGustMPH,Humidity,HourlyPrecipIn,Conditions,Clouds,dailyrainin,SoftwareType,DateUTC
2013-06-01 11:53:00,78.3,66.0,28.94,West,273,8.1,8.1,66,0.00,,---,0.00,VWS V14.00,2013-06-01 16:53:00,
2013-06-01 11:56:00,78.3,66.0,28.94,West,273,8.1,8.1,66,0.00,,---,0.00,VWS V14.00,2013-06-01 16:56:00,
2013-06-01 11:57:00,78.1,65.8,28.94,SW,233,5.4,8.1,66,0.00,,---,0.00,VWS V14.00,2013-06-01 16:57:00,
2013-06-01 11:58:00,77.0,64.8,28.94,SW,233,5.8,5.8,66,0.00,,---,0.00,VWS V14.00,2013-06-01 16:58:00,
2013-06-01 11:59:00,77.4,65.1,28.94,SW,219,3.6,8.7,66,0.00,,---,0.00,VWS V14.00,2013-06-01 16:59:00,
2013-06-01 12:00:00,77.4,65.1,28.94,West,262,3.1,9.6,66,0.00,,---,0.00,VWS V14.00,2013-06-01 17:00:00,
2013-06-01 12:01:00,77.2,64.9,28.94,SW,229,4.9,5.8,66,0.00,,---,0.00,VWS V14.00,2013-06-01 17:01:00,
2013-06-01 12:02:00,77.0,64.8,28.94,West,261,7.6,7.6,66,0.00,,---,0.00,VWS V14.00,2013-06-01 17:02:00,
2013-06-01 12:03:00,76.5,64.3,28.94,South,173,8.7,8.7,66,0.00,,---,0.00,VWS V14.00,2013-06-01 17:03:00,
2013-06-01 12:04:00,76.6,64.4,28.94,NNW,328,2.7,4.0,66,0.00,,---,0.00,VWS V14.00,2013-06-01 17:04:00,
2013-06-01 12:05:00,76.6,64.4,28.94,SW,231,4.0,6.3,66,0.00,,---,0.00,VWS V14.00,2013-06-01 17:05:00,
2013-06-01 12:06:00,76.5,64.3,28.94,WSW,240,5.8,5.8,66,0.00,,---,0.00,VWS V14.00,2013-06-01 17:06:00,
2013-06-01 12:07:00,76.5,64.3,28.94,West,264,8.1,8.7,66,0.00,,---,0.00,VWS V14.00,2013-06-01 17:07:00,
2013-06-01 12:08:00,76.5,64.3,28.94,West,259,4.0,4.0,66,0.00,,---,0.00,VWS V14.00,2013-06-01 17:08:00,
2013-06-01 12:09:00,76.5,64.3,28.94,ESE,118,2.7,5.8,66,0.00,,---,0.00,VWS V14.00,2013-06-01 17:09:00,
2013-06-01 12:10:00,76.3,64.1,28.94,SW,219,6.3,10.5,66,0.00,,---,0.00,VWS V14.00,2013-06-01 17:10:00,
2013-06-01 12:11:00,76.5,66.0,28.94,WSW,238,2.7,6.3,70,0.00,,---,0.00,VWS V14.00,2013-06-01 17:11:00,
2013-06-01 12:12:00,76.5,64.3,28.94,WSW,257,2.7,4.0,66,0.00,,---,0.00,VWS V14.00,2013-06-01 17:12:00,
2013-06-01 12:13:00,77.7,65.5,28.94,SSW,200,3.1,3.6,66,0.00,,---,0.00,VWS V14.00,2013-06-01 17:13:00,
2013-06-01 12:14:00,77.2,64.9,28.94,NW,311,2.2,3.6,66,0.00,,---,0.00,VWS V14.00,2013-06-01 17:14:00,
2013-06-01 12:15:00,77.4,65.1,28.94,West,275,4.0,5.4,66,0.00,,---,0.00,VWS V14.00,2013-06-01 17:15:00,
2013-06-01 12:16:00,77.5,65.3,28.94,SW,232,2.7,5.4,66,0.00,,---,0.00,VWS V14.00,2013-06-01 17:16:00,
2013-06-01 12:17:00,77.7,65.5,28.94,West,280,6.7,6.7,66,0.00,,---,0.00,VWS V14.00,2013-06-01 17:17:00,
2013-06-01 12:18:00,77.7,65.5,28.94,SW,219,0.0,0.0,66,0.00,,---,0.00,VWS V14.00,2013-06-01 17:18:00,
2013-06-01 12:19:00,77.7,65.5,28.94,West,272,2.7,4.0,66,0.00,,---,0.00,VWS V14.00,2013-06-01 17:19:00,
2013-06-01 12:20:00,77.7,65.5,28.94,West,263,7.2,7.2,66,0.00,,---,0.00,VWS V14.00,2013-06-01 17:20:00,
2013-06-01 12:21:00,77.7,65.5,28.94,NW,305,0.0,7.6,66,0.00,,---,0.00,VWS V14.00,2013-06-01 17:21:00,
2013-06-01 12:22:00,77.7,65.5,28.94,SSW,213,4.0,4.0,66,0.00,,---,0.00,VWS V14.00,2013-06-01 17:22:00,
2013-06-01 12:23:00,77.5,65.3,28.94,WSW,253,10.1,17.0,66,0.00,,---,0.00,VWS V14.00,2013-06-01 17:23:00,
2013-06-01 12:24:00,77.9,65.6,28.94,WSW,258,6.3,7.6,66,0.00,,---,0.00,VWS V14.00,2013-06-01 17:24:00,
2013-06-01 12:25:00,77.9,65.6,28.94,West,266,5.8,8.1,66,0.00,,---,0.00,VWS V14.00,2013-06-01 17:25:00,
2013-06-01 12:26:00,77.7,65.5,28.94,West,275,17.0,17.0,66,0.00,,---,0.00,VWS V14.00,2013-06-01 17:26:00,
2013-06-01 12:27:00,77.5,65.3,28.94,WNW,285,7.6,17.0,66,0.00,,---,0.00,VWS V14.00,2013-06-01 17:27:00,
2013-06-01 12:28:00,78.6,66.3,28.94,WNW,288,7.6,8.3,66,0.00,,---,0.00,VWS V14.00,2013-06-01 17:28:00,
2013-06-01 12:29:00,78.1,65.8,28.94,SW,226,5.8,8.3,66,0.00,,---,0.00,VWS V14.00,2013-06-01 17:29:00,
2013-06-01 12:30:00,78.4,66.2,28.94,WSW,242,3.6,8.1,66,0.00,,---,0.00,VWS V14.00,2013-06-01 17:30:00,
2013-06-01 12:31:00,78.6,66.3,28.94,SSW,192,4.0,6.3,66,0.00,,---,0.00,VWS V14.00,2013-06-01 17:31:00,
2013-06-01 12:32:00,78.8,65.6,28.94,WNW,295,8.3,8.3,64,0.00,,---,0.00,VWS V14.00,2013-06-01 17:32:00,
2013-06-01 12:33:00,78.4,66.2,28.94,West,268,4.0,4.0,66,0.00,,---,0.00,VWS V14.00,2013-06-01 17:33:00,
2013-06-01 12:34:00,78.6,66.3,28.94,WSW,239,3.1,8.1,66,0.00,,---,0.00,VWS V14.00,2013-06-01 17:34:00,
2013-06-01 12:35:00,78.6,66.3,28.94,West,266,4.0,5.4,66,0.00,,---,0.00,VWS V14.00,2013-06-01 17:35:00,
2013-06-01 12:36:00,78.6,66.3,28.94,SE,129,4.0,10.5,66,0.00,,---,0.00,VWS V14.00,2013-06-01 17:36:00,
2013-06-01 12:37:00,78.4,66.2,28.94,SW,216,5.8,6.3,66,0.00,,---,0.00,VWS V14.00,2013-06-01 17:37:00,
2013-06-01 12:38:00,79.3,66.1,28.91,South,190,6.3,6.3,64,0.00,,---,0.00,VWS V14.00,2013-06-01 17:38:00,
2013-06-01 12:39:00,78.8,65.6,28.91,WNW,291,6.3,10.5,64,0.00,,---,0.00,VWS V14.00,2013-06-01 17:39:00,
2013-06-01 12:40:00,79.0,65.8,28.91,West,281,3.1,6.3,64,0.00,,---,0.00,VWS V14.00,2013-06-01 17:40:00,
2013-06-01 12:41:00,79.2,65.9,28.91,SW,219,3.6,5.4,64,0.00,,---,0.00,VWS V14.00,2013-06-01 17:41:00,
2013-06-01 12:42:00,79.5,66.3,28.91,West,271,5.8,6.3,64,0.00,,---,0.00,VWS V14.00,2013-06-01 17:42:00,
2013-06-01 12:43:00,81.0,67.7,28.91,West,260,3.1,5.4,64,0.00,,---,0.00,VWS V14.00,2013-06-01 17:43:00,
2013-06-01 12:44:00,80.1,66.8,28.91,SSW,210,4.0,6.3,64,0.00,,---,0.00,VWS V14.00,2013-06-01 17:44:00,
2013-06-01 12:45:00,80.6,67.3,28.91,WSW,252,5.4,6.7,64,0.00,,---,0.00,VWS V14.00,2013-06-01 17:45:00,
2013-06-01 12:46:00,80.8,67.5,28.91,SSW,209,2.7,5.4,64,0.00,,---,0.00,VWS V14.00,2013-06-01 17:46:00,
2013-06-01 12:47:00,81.1,67.8,28.91,West,259,4.5,5.4,64,0.00,,---,0.00,VWS V14.00,2013-06-01 17:47:00,
2013-06-01 12:48:00,81.0,67.7,28.91,SSW,210,8.1,8.1,64,0.00,,---,0.00,VWS V14.00,2013-06-01 17:48:00,
2013-06-01 12:49:00,81.3,68.0,28.91,WSW,256,6.3,8.3,64,0.00,,---,0.00,VWS V14.00,2013-06-01 17:49:00,
2013-06-01 12:50:00,81.1,67.8,28.91,SW,217,5.4,8.1,64,0.00,,---,0.00,VWS V14.00,2013-06-01 17:50:00,
2013-06-01 12:51:00,81.0,67.7,28.91,WSW,252,5.4,5.8,64,0.00,,---,0.00,VWS V14.00,2013-06-01 17:51:00,
2013-06-01 12:52:00,81.0,67.7,28.91,NW,313,3.6,8.1,64,0.00,,---,0.00,VWS V14.00,2013-06-01 17:52:00,
2013-06-01 12:53:00,81.1,67.8,28.91,SSW,210,6.3,6.3,64,0.00,,---,0.00,VWS V14.00,2013-06-01 17:53:00,
2013-06-01 12:54:00,80.8,67.5,28.91,SSW,200,5.8,8.3,64,0.00,,---,0.00,VWS V14.00,2013-06-01 17:54:00,
2013-06-01 12:55:00,81.0,67.7,28.91,SSW,202,3.1,6.3,64,0.00,,---,0.00,VWS V14.00,2013-06-01 17:55:00,
2013-06-01 12:56:00,81.0,67.7,28.91,WSW,239,5.4,5.8,64,0.00,,---,0.00,VWS V14.00,2013-06-01 17:56:00,
2013-06-01 12:57:00,81.1,67.8,28.91,WSW,237,7.6,7.6,64,0.00,,---,0.00,VWS V14.00,2013-06-01 17:57:00,
2013-06-01 12:58:00,82.0,68.7,28.91,WSW,238,3.1,8.7,64,0.00,,---,0.00,VWS V14.00,2013-06-01 17:58:00,
2013-06-01 12:59:00,81.5,68.2,28.91,WSW,251,4.0,4.0,64,0.00,,---,0.00,VWS V14.00,2013-06-01 17:59:00,
2013-06-01 13:00:00,81.7,68.3,28.91,SSW,195,8.3,8.3,64,0.00,,---,0.00,VWS V14.00,2013-06-01 18:00:00,
2013-06-01 13:01:00,81.9,68.5,28.91,WSW,250,5.4,8.3,64,0.00,,---,0.00,VWS V14.00,2013-06-01 18:01:00,
2013-06-01 13:02:00,82.0,68.7,28.91,NW,304,4.9,8.7,64,0.00,,---,0.00,VWS V14.00,2013-06-01 18:02:00,
2013-06-01 13:03:00,82.0,68.7,28.91,SW,236,4.5,5.4,64,0.00,,---,0.00,VWS V14.00,2013-06-01 18:03:00,
2013-06-01 13:04:00,82.0,68.7,28.91,WNW,289,3.6,10.1,64,0.00,,---,0.00,VWS V14.00,2013-06-01 18:04:00,
2013-06-01 13:05:00,81.9,68.5,28.91,SSW,210,5.8,5.8,64,0.00,,---,0.00,VWS V14.00,2013-06-01 18:05:00,
2013-06-01 13:06:00,81.9,68.5,28.91,SSW,207,5.4,5.8,64,0.00,,---,0.00,VWS V14.00,2013-06-01 18:06:00,
2013-06-01 13:07:00,82.0,68.7,28.91,WNW,286,4.9,5.4,64,0.00,,---,0.00,VWS V14.00,2013-06-01 18:07:00,
2013-06-01 13:08:00,80.6,67.3,28.91,SW,221,9.6,9.6,64,0.00,,---,0.00,VWS V14.00,2013-06-01 18:08:00,
2013-06-01 13:09:00,81.7,68.3,28.91,SW,215,6.3,6.3,64,0.00,,---,0.00,VWS V14.00,2013-06-01 18:09:00,
2013-06-01 13:10:00,81.3,68.0,28.91,West,259,5.8,6.3,64,0.00,,---,0.00,VWS V14.00,2013-06-01 18:10:00,
2013-06-01 13:11:00,81.0,67.7,28.91,West,268,4.0,6.3,64,0.00,,---,0.00,VWS V14.00,2013-06-01 18:11:00,
2013-06-01 13:12:00,80.6,67.3,28.91,WNW,285,2.7,9.6,64,0.00,,---,0.00,VWS V14.00,2013-06-01 18:12:00,
2013-06-01 13:13:00,79.7,66.5,28.91,SW,220,4.0,4.0,64,0.00,,---,0.00,VWS V14.00,2013-06-01 18:13:00,
2013-06-01 13:14:00,80.1,66.8,28.91,WSW,258,2.7,3.1,64,0.00,,---,0.00,VWS V14.00,2013-06-01 18:14:00,
2013-06-01 13:15:00,79.9,66.6,28.91,South,182,5.8,5.8,64,0.00,,---,0.00,VWS V14.00,2013-06-01 18:15:00,
2013-06-01 13:16:00,79.9,66.6,28.91,SSW,203,4.0,7.6,64,0.00,,---,0.00,VWS V14.00,2013-06-01 18:16:00,
2013-06-01 13:17:00,79.7,66.5,28.91,WNW,300,6.3,6.3,64,0.00,,---,0.00,VWS V14.00,2013-06-01 18:17:00,
2013-06-01 13:18:00,79.5,66.3,28.91,North,349,2.7,3.1,64,0.00,,---,0.00,VWS V14.00,2013-06-01 18:18:00,
2013-06-01 13:19:00,79.7,66.5,28.91,WSW,252,3.6,4.0,64,0.00,,---,0.00,VWS V14.00,2013-06-01 18:19:00,
2013-06-01 13:20:00,79.5,66.3,28.91,SW,217,6.3,6.3,64,0.00,,---,0.00,VWS V14.00,2013-06-01 18:20:00,
2013-06-01 13:21:00,79.5,66.3,28.91,SW,230,3.1,7.6,64,0.00,,---,0.00,VWS V14.00,2013-06-01 18:21:00,
2013-06-01 13:22:00,79.7,66.5,28.91,SSW,193,4.0,4.0,64,0.00,,---,0.00,VWS V14.00,2013-06-01 18:22:00,
2013-06-01 13:23:00,81.0,67.7,28.91,SW,215,4.9,4.9,64,0.00,,---,0.00,VWS V14.00,2013-06-01 18:23:00,
2013-06-01 13:24:00,80.1,66.8,28.91,South,187,4.9,5.8,64,0.00,,---,0.00,VWS V14.00,2013-06-01 18:24:00,
2013-06-01 13:25:00,80.2,67.0,28.91,SW,225,2.7,4.9,64,0.00,,---,0.00,VWS V14.00,2013-06-01 18:25:00,
2013-06-01 13:26:00,80.8,67.5,28.91,SW,227,2.7,5.4,64,0.00,,---,0.00,VWS V14.00,2013-06-01 18:26:00,
2013-06-01 13:27:00,81.1,67.8,28.91,SW,215,4.9,4.9,64,0.00,,---,0.00,VWS V14.00,2013-06-01 18:27:00,
2013-06-01 13:28:00,81.5,68.2,28.91,SW,236,3.1,3.1,64,0.00,,---,0.00,VWS V14.00,2013-06-01 18:28:00,
2013-06-01 13:29:00,81.3,68.0,28.91,SSW,195,5.8,5.8,64,0.00,,---,0.00,VWS V14.00,2013-06-01 18:29:00,
2013-06-01 13:30:00,81.3,68.0,28.91,SW,217,6.3,6.3,64,0.00,,---,0.00,VWS V14.00,2013-06-01 18:30:00,
2013-06-01 13:31:00,81.3,68.0,28.91,WSW,251,3.1,8.3,64,0.00,,---,0.00,VWS V14.00,2013-06-01 18:31:00,
2013-06-01 13:32:00,81.5,68.2,28.91,WSW,247,5.4,5.4,64,0.00,,---,0.00,VWS V14.00,2013-06-01 18:32:00,
2013-06-01 13:33:00,81.1,67.8,28.91,WSW,238,3.1,4.0,64,0.00,,---,0.00,VWS V14.00,2013-06-01 18:33:00,
2013-06-01 13:34:00,81.5,68.2,28.91,West,262,5.4,5.4,64,0.00,,---,0.00,VWS V14.00,2013-06-01 18:34:00,
2013-06-01 13:35:00,81.1,67.8,28.91,NW,305,6.3,6.3,64,0.00,,---,0.00,VWS V14.00,2013-06-01 18:35:00,
2013-06-01 13:36:00,81.1,67.8,28.91,SSW,208,4.0,6.3,64,0.00,,---,0.00,VWS V14.00,2013-06-01 18:36:00,
2013-06-01 13:37:00,81.1,67.8,28.91,West,264,3.1,4.0,64,0.00,,---,0.00,VWS V14.00,2013-06-01 18:37:00,
2013-06-01 13:38:00,81.1,67.8,28.91,West,277,3.6,5.4,64,0.00,,---,0.00,VWS V14.00,2013-06-01 18:38:00,
2013-06-01 13:39:00,80.8,67.5,28.91,SSW,210,4.0,7.6,64,0.00,,---,0.00,VWS V14.00,2013-06-01 18:39:00,
2013-06-01 13:40:00,81.0,67.7,28.91,West,269,6.3,6.3,64,0.00,,---,0.00,VWS V14.00,2013-06-01 18:40:00,
2013-06-01 13:41:00,81.0,67.7,28.91,SW,217,4.0,8.3,64,0.00,,---,0.00,VWS V14.00,2013-06-01 18:41:00,
2013-06-01 13:42:00,81.1,67.8,28.91,SSW,197,4.0,5.4,64,0.00,,---,0.00,VWS V14.00,2013-06-01 18:42:00,
2013-06-01 13:43:00,82.0,68.7,28.91,SW,235,3.6,7.2,64,0.00,,---,0.00,VWS V14.00,2013-06-01 18:43:00,
2013-06-01 13:44:00,81.9,68.5,28.91,ESE,122,4.0,7.6,64,0.00,,---,0.00,VWS V14.00,2013-06-01 18:44:00,
2013-06-01 13:45:00,81.9,68.5,28.91,WSW,253,4.0,4.9,64,0.00,,---,0.00,VWS V14.00,2013-06-01 18:45:00,
2013-06-01 13:46:00,81.9,68.5,28.91,SSE,158,5.4,5.4,64,0.00,,---,0.00,VWS V14.00,2013-06-01 18:46:00,
2013-06-01 13:47:00,82.0,68.7,28.91,West,259,5.4,7.2,64,0.00,,---,0.00,VWS V14.00,2013-06-01 18:47:00,
2013-06-01 13:48:00,82.4,68.1,28.91,WSW,243,2.2,3.6,62,0.00,,---,0.00,VWS V14.00,2013-06-01 18:48:00,
2013-06-01 13:49:00,82.2,68.8,28.91,WNW,285,0.0,3.6,64,0.00,,---,0.00,VWS V14.00,2013-06-01 18:49:00,
2013-06-01 13:50:00,82.2,68.8,28.91,WSW,245,3.6,3.6,64,0.00,,---,0.00,VWS V14.00,2013-06-01 18:50:00,
2013-06-01 13:51:00,82.2,68.8,28.91,SSW,211,3.6,6.3,64,0.00,,---,0.00,VWS V14.00,2013-06-01 18:51:00,
2013-06-01 13:52:00,82.4,68.1,28.91,WSW,256,3.6,3.6,62,0.00,,---,0.00,VWS V14.00,2013-06-01 18:52:00,
2013-06-01 13:53:00,82.8,68.4,28.91,SW,222,2.7,4.9,62,0.00,,---,0.00,VWS V14.00,2013-06-01 18:53:00,
2013-06-01 13:54:00,82.0,68.7,28.91,WNW,295,8.3,8.3,64,0.00,,---,0.00,VWS V14.00,2013-06-01 18:54:00,
2013-06-01 13:55:00,82.0,68.7,28.91,WSW,254,3.6,8.3,64,0.00,,---,0.00,VWS V14.00,2013-06-01 18:55:00,
2013-06-01 13:56:00,82.2,68.8,28.91,SSW,194,4.0,6.3,64,0.00,,---,0.00,VWS V14.00,2013-06-01 18:56:00,
2013-06-01 13:57:00,82.8,68.4,28.91,SSE,156,5.8,5.8,62,0.00,,---,0.00,VWS V14.00,2013-06-01 18:57:00,
2013-06-01 13:58:00,82.9,68.6,28.91,SW,223,5.4,6.3,62,0.00,,---,0.00,VWS V14.00,2013-06-01 18:58:00,
2013-06-01 13:59:00,82.9,68.6,28.91,West,265,2.2,4.9,62,0.00,,---,0.00,VWS V14.00,2013-06-01 18:59:00,
2013-06-01 14:00:00,83.1,68.8,28.91,SW,221,3.1,5.8,62,0.00,,---,0.00,VWS V14.00,2013-06-01 19:00:00,
2013-06-01 14:01:00,82.9,68.6,28.91,West,278,3.6,7.6,62,0.00,,---,0.00,VWS V14.00,2013-06-01 19:01:00,
2013-06-01 14:02:00,82.9,68.6,28.91,West,278,4.0,6.3,62,0.00,,---,0.00,VWS V14.00,2013-06-01 19:02:00,
2013-06-01 14:03:00,82.2,68.8,28.91,East,87,5.8,5.8,64,0.00,,---,0.00,VWS V14.00,2013-06-01 19:03:00,
2013-06-01 14:04:00,82.8,68.4,28.91,SSW,202,6.3,8.7,62,0.00,,---,0.00,VWS V14.00,2013-06-01 19:04:00,
2013-06-01 14:05:00,82.4,68.1,28.91,SW,215,8.1,8.1,62,0.00,,---,0.00,VWS V14.00,2013-06-01 19:05:00,
2013-06-01 14:06:00,82.0,68.7,28.91,SSW,195,4.9,10.5,64,0.00,,---,0.00,VWS V14.00,2013-06-01 19:06:00,
2013-06-01 14:07:00,82.2,68.8,28.91,South,184,6.3,6.3,64,0.00,,---,0.00,VWS V14.00,2013-06-01 19:07:00,
2013-06-01 14:08:00,82.6,68.2,28.91,West,261,7.6,8.1,62,0.00,,---,0.00,VWS V14.00,2013-06-01 19:08:00,
2013-06-01 14:09:00,82.8,68.4,28.91,SE,138,8.7,8.7,62,0.00,,---,0.00,VWS V14.00,2013-06-01 19:09:00,
2013-06-01 14:10:00,82.6,68.2,28.91,South,178,3.1,8.7,62,0.00,,---,0.00,VWS V14.00,2013-06-01 19:10:00,
2013-06-01 14:11:00,82.8,68.4,28.91,West,259,4.0,4.0,62,0.00,,---,0.00,VWS V14.00,2013-06-01 19:11:00,
2013-06-01 14:12:00,82.6,68.2,28.91,SSW,196,7.6,8.1,62,0.00,,---,0.00,VWS V14.00,2013-06-01 19:12:00,
2013-06-01 14:13:00,81.9,68.5,28.91,SSW,204,5.8,6.3,64,0.00,,---,0.00,VWS V14.00,2013-06-01 19:13:00,
2013-06-01 14:14:00,82.8,68.4,28.91,SW,214,5.8,8.3,62,0.00,,---,0.00,VWS V14.00,2013-06-01 19:14:00,
2013-06-01 14:15:00,82.6,68.2,28.91,South,173,8.7,11.4,62,0.00,,---,0.00,VWS V14.00,2013-06-01 19:15:00,
2013-06-01 14:16:00,82.2,68.8,28.91,SSW,207,5.4,8.7,64,0.00,,---,0.00,VWS V14.00,2013-06-01 19:16:00,
2013-06-01 14:17:00,81.9,68.5,28.91,West,278,5.4,6.3,64,0.00,,---,0.00,VWS V14.00,2013-06-01 19:17:00,
2013-06-01 14:18:00,82.0,68.7,28.91,SSW,209,8.1,10.5,64,0.00,,---,0.00,VWS V14.00,2013-06-01 19:18:00,
2013-06-01 14:19:00,81.5,68.2,28.91,WSW,237,3.6,5.4,64,0.00,,---,0.00,VWS V14.00,2013-06-01 19:19:00,
2013-06-01 14:20:00,81.7,68.3,28.91,SW,214,3.6,6.3,64,0.00,,---,0.00,VWS V14.00,2013-06-01 19:20:00,
2013-06-01 14:21:00,81.9,68.5,28.91,SW,236,4.9,8.7,64,0.00,,---,0.00,VWS V14.00,2013-06-01 19:21:00,
2013-06-01 14:22:00,82.0,68.7,28.91,SW,221,5.8,10.5,64,0.00,,---,0.00,VWS V14.00,2013-06-01 19:22:00,
2013-06-01 14:23:00,82.9,68.6,28.91,SSW,198,6.3,6.3,62,0.00,,---,0.00,VWS V14.00,2013-06-01 19:23:00,
2013-06-01 14:24:00,82.8,68.4,28.91,SW,217,11.0,11.0,62,0.00,,---,0.00,VWS V14.00,2013-06-01 19:24:00,
2013-06-01 14:25:00,82.9,68.6,28.91,SSE,150,8.7,11.0,62,0.00,,---,0.00,VWS V14.00,2013-06-01 19:25:00,
2013-06-01 14:26:00,83.1,68.8,28.91,SW,223,2.7,8.7,62,0.00,,---,0.00,VWS V14.00,2013-06-01 19:26:00,
2013-06-01 14:27:00,83.1,68.8,28.91,SE,124,10.5,10.5,62,0.00,,---,0.00,VWS V14.00,2013-06-01 19:27:00,
2013-06-01 14:28:00,81.5,68.2,28.91,SSW,192,11.0,11.0,64,0.00,,---,0.00,VWS V14.00,2013-06-01 19:28:00,
2013-06-01 14:29:00,82.4,68.1,28.91,West,262,8.1,11.0,62,0.00,,---,0.00,VWS V14.00,2013-06-01 19:29:00,
2013-06-01 14:30:00,82.2,68.8,28.91,WSW,251,4.0,8.1,64,0.00,,---,0.00,VWS V14.00,2013-06-01 19:30:00,
2013-06-01 14:31:00,81.7,68.3,28.91,WNW,287,5.4,9.2,64,0.00,,---,0.00,VWS V14.00,2013-06-01 19:31:00,
2013-06-01 14:32:00,81.1,67.8,28.91,SSW,192,11.0,11.0,64,0.00,,---,0.00,VWS V14.00,2013-06-01 19:32:00,
2013-06-01 14:33:00,81.0,67.7,28.91,West,259,8.7,11.0,64,0.00,,---,0.00,VWS V14.00,2013-06-01 19:33:00,
2013-06-01 14:34:00,80.6,67.3,28.91,SW,217,4.0,8.7,64,0.00,,---,0.00,VWS V14.00,2013-06-01 19:34:00,
2013-06-01 14:35:00,80.4,67.1,28.91,WSW,258,3.1,6.3,64,0.00,,---,0.00,VWS V14.00,2013-06-01 19:35:00,
2013-06-01 16:28:00,78.3,66.0,28.88,SSW,200,7.2,7.2,66,0.00,,---,0.00,VWS V14.00,2013-06-01 21:28:00,
2013-06-01 16:31:00,78.3,66.0,28.88,SSW,200,7.2,7.2,66,0.00,,---,0.00,VWS V14.00,2013-06-01 21:31:00,
2013-06-01 16:32:00,78.3,66.0,28.88,SSW,210,4.9,7.2,66,0.00,,---,0.00,VWS V14.00,2013-06-01 21:32:00,
2013-06-01 16:33:00,77.9,65.6,28.88,SSW,199,3.6,5.4,66,0.00,,---,0.00,VWS V14.00,2013-06-01 21:33:00,
2013-06-01 16:34:00,78.1,65.8,28.88,WSW,258,4.0,14.1,66,0.00,,---,0.00,VWS V14.00,2013-06-01 21:34:00,
2013-06-01 16:35:00,78.1,65.8,28.88,SW,224,5.4,8.1,66,0.00,,---,0.00,VWS V14.00,2013-06-01 21:35:00,
2013-06-01 16:36:00,77.9,65.6,28.88,SSW,205,3.6,8.7,66,0.00,,---,0.00,VWS V14.00,2013-06-01 21:36:00,
2013-06-01 16:37:00,77.9,65.6,28.88,SSW,199,3.6,5.4,66,0.00,,---,0.00,VWS V14.00,2013-06-01 21:37:00,
2013-06-01 16:38:00,77.7,65.5,28.85,SSW,211,10.1,11.9,66,0.00,,---,0.00,VWS V14.00,2013-06-01 21:38:00,
2013-06-01 16:39:00,77.9,65.6,28.88,East,93,3.6,6.3,66,0.00,,---,0.00,VWS V14.00,2013-06-01 21:39:00,
2013-06-01 16:40:00,77.9,65.6,28.85,SW,219,6.3,9.6,66,0.00,,---,0.00,VWS V14.00,2013-06-01 21:40:00,
2013-06-01 16:41:00,77.7,65.5,28.85,SW,218,4.0,8.3,66,0.00,,---,0.00,VWS V14.00,2013-06-01 21:41:00,
2013-06-01 16:42:00,77.5,65.3,28.85,West,269,5.8,11.9,66,0.00,,---,0.00,VWS V14.00,2013-06-01 21:42:00,
2013-06-01 16:43:00,77.5,65.3,28.85,South,177,3.1,3.6,66,0.00,,---,0.00,VWS V14.00,2013-06-01 21:43:00,
2013-06-01 16:44:00,77.5,65.3,28.85,SW,230,4.0,4.0,66,0.00,,---,0.00,VWS V14.00,2013-06-01 21:44:00,
2013-06-01 16:45:00,77.5,65.3,28.85,WSW,255,2.7,4.9,66,0.00,,---,0.00,VWS V14.00,2013-06-01 21:45:00,
2013-06-01 16:46:00,77.5,65.3,28.85,West,262,3.6,4.9,66,0.00,,---,0.00,VWS V14.00,2013-06-01 21:46:00,
2013-06-01 16:47:00,77.5,65.3,28.85,West,270,4.0,4.0,66,0.00,,---,0.00,VWS V14.00,2013-06-01 21:47:00,
2013-06-01 16:48:00,77.2,64.9,28.85,WSW,239,4.0,4.0,66,0.00,,---,0.00,VWS V14.00,2013-06-01 21:48:00,
2013-06-01 16:49:00,77.4,65.1,28.85,WNW,285,6.3,7.2,66,0.00,,---,0.00,VWS V14.00,2013-06-01 21:49:00,
2013-06-01 16:50:00,77.4,65.1,28.85,West,266,3.6,6.3,66,0.00,,---,0.00,VWS V14.00,2013-06-01 21:50:00,
2013-06-01 16:51:00,77.2,64.9,28.85,SW,233,3.6,8.7,66,0.00,,---,0.00,VWS V14.00,2013-06-01 21:51:00,
2013-06-01 16:52:00,77.2,64.9,28.85,SSW,203,3.1,4.0,66,0.00,,---,0.00,VWS V14.00,2013-06-01 21:52:00,
2013-06-01 16:53:00,77.5,65.3,28.85,NW,311,4.0,4.0,66,0.00,,---,0.00,VWS V14.00,2013-06-01 21:53:00,
2013-06-01 16:54:00,77.4,65.1,28.85,South,190,0.0,4.0,66,0.00,,---,0.00,VWS V14.00,2013-06-01 21:54:00,
2013-06-01 16:55:00,77.4,65.1,28.85,WSW,258,4.0,4.0,66,0.00,,---,0.00,VWS V14.00,2013-06-01 21:55:00,
2013-06-01 16:56:00,77.4,65.1,28.85,SW,226,2.2,5.4,66,0.00,,---,0.00,VWS V14.00,2013-06-01 21:56:00,
2013-06-01 16:57:00,77.5,65.3,28.85,SW,235,5.4,5.4,66,0.00,,---,0.00,VWS V14.00,2013-06-01 21:57:00,
2013-06-01 16:58:00,77.7,65.5,28.85,WSW,237,6.3,15.4,66,0.00,,---,0.00,VWS V14.00,2013-06-01 21:58:00,
2013-06-01 16:59:00,77.7,65.5,28.85,WNW,299,3.1,5.8,66,0.00,,---,0.00,VWS V14.00,2013-06-01 21:59:00,
2013-06-01 17:00:00,77.7,65.5,28.85,West,267,4.0,8.7,66,0.00,,---,0.00,VWS V14.00,2013-06-01 22:00:00,
2013-06-01 17:01:00,77.7,65.5,28.85,WNW,296,15.4,15.4,66,0.00,,---,0.00,VWS V14.00,2013-06-01 22:01:00,
2013-06-01 17:02:00,77.7,65.5,28.85,WSW,237,6.3,15.4,66,0.00,,---,0.00,VWS V14.00,2013-06-01 22:02:00,
2013-06-01 17:03:00,78.3,66.0,28.85,SSW,213,4.9,4.9,66,0.00,,---,0.00,VWS V14.00,2013-06-01 22:03:00,
2013-06-01 17:04:00,77.9,65.6,28.85,SW,219,5.4,5.4,66,0.00,,---,0.00,VWS V14.00,2013-06-01 22:04:00,
2013-06-01 17:05:00,78.1,65.8,28.85,West,281,3.1,6.3,66,0.00,,---,0.00,VWS V14.00,2013-06-01 22:05:00,
2013-06-01 17:06:00,78.3,66.0,28.85,South,185,2.7,7.2,66,0.00,,---,0.00,VWS V14.00,2013-06-01 22:06:00,
2013-06-01 17:07:00,78.3,66.0,28.85,West,265,4.0,4.9,66,0.00,,---,0.00,VWS V14.00,2013-06-01 22:07:00,
2013-06-01 17:08:00,78.3,66.0,28.85,SW,218,4.0,4.9,66,0.00,,---,0.00,VWS V14.00,2013-06-01 22:08:00,
2013-06-01 17:09:00,78.4,66.2,28.85,WSW,246,4.0,10.5,66,0.00,,---,0.00,VWS V14.00,2013-06-01 22:09:00,
2013-06-01 17:10:00,78.3,66.0,28.85,SSW,211,7.6,9.6,66,0.00,,---,0.00,VWS V14.00,2013-06-01 22:10:00,
2013-06-01 17:11:00,78.3,66.0,28.85,SSW,208,4.9,7.6,66,0.00,,---,0.00,VWS V14.00,2013-06-01 22:11:00,
2013-06-01 17:12:00,78.3,66.0,28.85,SW,236,5.4,5.4,66,0.00,,---,0.00,VWS V14.00,2013-06-01 22:12:00,
2013-06-01 17:13:00,77.7,65.5,28.85,SSE,160,5.4,7.2,66,0.00,,---,0.00,VWS V14.00,2013-06-01 22:13:00,
2013-06-01 17:14:00,78.1,65.8,28.85,SSW,202,8.1,8.1,66,0.00,,---,0.00,VWS V14.00,2013-06-01 22:14:00,
2013-06-01 17:15:00,77.9,65.6,28.85,SSW,208,8.3,8.3,66,0.00,,---,0.00,VWS V14.00,2013-06-01 22:15:00,
2013-06-01 17:16:00,77.7,65.5,28.85,SW,231,7.2,8.3,66,0.00,,---,0.00,VWS V14.00,2013-06-01 22:16:00,
2013-06-01 17:17:00,77.7,65.5,28.85,WSW,245,3.1,7.2,66,0.00,,---,0.00,VWS V14.00,2013-06-01 22:17:00,
2013-06-01 17:18:00,77.2,64.9,28.85,SSW,202,12.3,12.3,66,0.00,,---,0.00,VWS V14.00,2013-06-01 22:18:00,
2013-06-01 17:19:00,77.4,65.1,28.85,SE,146,6.3,6.3,66,0.00,,---,0.00,VWS V14.00,2013-06-01 22:19:00,
2013-06-01 17:20:00,77.4,65.1,28.85,West,275,3.6,12.8,66,0.00,,---,0.00,VWS V14.00,2013-06-01 22:20:00,
2013-06-01 17:21:00,77.4,65.1,28.85,WSW,242,3.6,3.6,66,0.00,,---,0.00,VWS V14.00,2013-06-01 22:21:00,
2013-06-01 17:22:00,77.2,64.9,28.85,SW,215,12.8,12.8,66,0.00,,---,0.00,VWS V14.00,2013-06-01 22:22:00,
2013-06-01 17:23:00,76.8,64.6,28.85,SSW,212,6.3,7.6,66,0.00,,---,0.00,VWS V14.00,2013-06-01 22:23:00,
2013-06-01 17:24:00,77.0,64.8,28.85,SW,219,3.6,8.3,66,0.00,,---,0.00,VWS V14.00,2013-06-01 22:24:00,
2013-06-01 17:25:00,77.0,64.8,28.85,SW,215,3.1,7.6,66,0.00,,---,0.00,VWS V14.00,2013-06-01 22:25:00,
2013-06-01 17:26:00,76.8,64.6,28.85,West,277,7.6,7.6,66,0.00,,---,0.00,VWS V14.00,2013-06-01 22:26:00,
2013-06-01 17:27:00,76.8,64.6,28.85,SSW,201,5.8,7.6,66,0.00,,---,0.00,VWS V14.00,2013-06-01 22:27:00,
2013-06-01 17:28:00,76.6,64.4,28.85,SW,219,3.6,4.0,66,0.00,,---,0.00,VWS V14.00,2013-06-01 22:28:00,
2013-06-01 17:29:00,76.6,64.4,28.85,SSW,198,3.6,3.6,66,0.00,,---,0.00,VWS V14.00,2013-06-01 22:29:00,
2013-06-01 17:30:00,76.6,64.4,28.85,South,186,4.0,4.0,66,0.00,,---,0.00,VWS V14.00,2013-06-01 22:30:00,
2013-06-01 17:31:00,76.6,64.4,28.85,South,188,4.0,8.1,66,0.00,,---,0.00,VWS V14.00,2013-06-01 22:31:00,
2013-06-01 17:32:00,76.6,64.4,28.85,WSW,246,4.0,4.0,66,0.00,,---,0.00,VWS V14.00,2013-06-01 22:32:00,
2013-06-01 17:33:00,76.1,63.9,28.85,West,259,2.7,4.0,66,0.00,,---,0.00,VWS V14.00,2013-06-01 22:33:00,
2013-06-01 17:34:00,76.3,64.1,28.85,SSW,200,4.9,9.2,66,0.00,,---,0.00,VWS V14.00,2013-06-01 22:34:00,
2013-06-01 17:35:00,76.3,64.1,28.85,WSW,256,3.1,4.9,66,0.00,,---,0.00,VWS V14.00,2013-06-01 22:35:00,
2013-06-01 17:36:00,76.3,64.1,28.85,SSW,207,4.0,9.6,66,0.00,,---,0.00,VWS V14.00,2013-06-01 22:36:00,
2013-06-01 17:37:00,76.1,63.9,28.85,SSW,198,3.6,4.0,66,0.00,,---,0.00,VWS V14.00,2013-06-01 22:37:00,
2013-06-01 17:38:00,75.7,63.6,28.82,WSW,243,2.7,5.8,66,0.00,,---,0.00,VWS V14.00,2013-06-01 22:38:00,
2013-06-01 17:39:00,75.9,63.8,28.85,South,178,3.6,4.9,66,0.00,,---,0.00,VWS V14.00,2013-06-01 22:39:00,
2013-06-01 17:40:00,75.9,63.8,28.82,SE,131,5.4,10.1,66,0.00,,---,0.00,VWS V14.00,2013-06-01 22:40:00,
2013-06-01 17:41:00,75.7,63.6,28.82,WSW,252,5.8,8.7,66,0.00,,---,0.00,VWS V14.00,2013-06-01 22:41:00,
2013-06-01 17:42:00,75.7,63.6,28.82,WSW,243,2.7,5.8,66,0.00,,---,0.00,VWS V14.00,2013-06-01 22:42:00,
2013-06-01 17:43:00,75.6,63.4,28.82,SW,216,5.4,5.4,66,0.00,,---,0.00,VWS V14.00,2013-06-01 22:43:00,
2013-06-01 17:44:00,75.6,63.4,28.82,SE,131,3.1,6.3,66,0.00,,---,0.00,VWS V14.00,2013-06-01 22:44:00,
2013-06-01 17:45:00,75.6,63.4,28.82,WNW,284,2.7,9.2,66,0.00,,---,0.00,VWS V14.00,2013-06-01 22:45:00,
2013-06-01 17:46:00,75.6,63.4,28.82,WSW,248,4.9,6.3,66,0.00,,---,0.00,VWS V14.00,2013-06-01 22:46:00,
2013-06-01 17:47:00,75.6,63.4,28.82,SW,216,5.4,5.4,66,0.00,,---,0.00,VWS V14.00,2013-06-01 22:47:00,
2013-06-01 17:48:00,75.2,64.8,28.82,SW,222,4.9,4.9,70,0.00,,---,0.00,VWS V14.00,2013-06-01 22:48:00,
2013-06-01 17:49:00,75.4,64.9,28.82,WSW,247,4.0,7.6,70,0.00,,---,0.00,VWS V14.00,2013-06-01 22:49:00,
2013-06-01 17:50:00,75.4,64.9,28.82,SSW,213,4.5,6.3,70,0.00,,---,0.00,VWS V14.00,2013-06-01 22:50:00,
2013-06-01 17:51:00,75.2,64.8,28.82,WSW,251,2.2,4.5,70,0.00,,---,0.00,VWS V14.00,2013-06-01 22:51:00,
2013-06-01 17:52:00,75.2,64.8,28.82,SW,222,4.9,4.9,70,0.00,,---,0.00,VWS V14.00,2013-06-01 22:52:00,
2013-06-01 17:53:00,75.0,65.4,28.82,West,268,3.1,5.8,72,0.00,,---,0.00,VWS V14.00,2013-06-01 22:53:00,
2013-06-01 17:54:00,74.8,65.2,28.82,SSE,168,0.0,3.1,72,0.00,,---,0.00,VWS V14.00,2013-06-01 22:54:00,
2013-06-01 17:55:00,74.8,65.2,28.82,SSW,207,0.0,2.7,72,0.00,,---,0.00,VWS V14.00,2013-06-01 22:55:00,
2013-06-01 17:56:00,74.7,65.0,28.82,South,186,3.6,3.6,72,0.00,,---,0.00,VWS V14.00,2013-06-01 22:56:00,
2013-06-01 18:43:00,76.1,66.4,28.82,West,265,2.7,2.7,72,0.00,,---,0.00,VWS V14.00,2013-06-01 23:43:00,
2013-06-01 18:46:00,76.1,66.4,28.82,West,265,2.7,2.7,72,0.00,,---,0.00,VWS V14.00,2013-06-01 23:46:00,
2013-06-01 18:47:00,76.1,66.4,28.82,SSW,206,3.6,3.6,72,0.00,,---,0.00,VWS V14.00,2013-06-01 23:47:00,
2013-06-01 18:48:00,76.1,65.6,28.82,SW,215,2.7,3.1,70,0.00,,---,0.00,VWS V14.00,2013-06-01 23:48:00,
2013-06-01 18:49:00,76.1,65.6,28.82,SSW,195,2.2,2.7,70,0.00,,---,0.00,VWS V14.00,2013-06-01 23:49:00,
2013-06-01 18:50:00,76.1,65.6,28.82,WSW,244,3.1,3.1,70,0.00,,---,0.00,VWS V14.00,2013-06-01 23:50:00,
2013-06-01 18:51:00,76.1,65.6,28.82,WNW,283,3.1,3.1,70,0.00,,---,0.00,VWS V14.00,2013-06-01 23:51:00,
2013-06-01 18:52:00,76.1,65.6,28.82,SSW,203,2.7,3.1,70,0.00,,---,0.00,VWS V14.00,2013-06-01 23:52:00,
2013-06-01 18:53:00,76.1,65.6,28.82,SW,236,5.8,5.8,70,0.00,,---,0.00,VWS V14.00,2013-06-01 23:53:00,
2013-06-01 18:54:00,76.1,65.6,28.82,South,170,2.7,5.8,70,0.00,,---,0.00,VWS V14.00,2013-06-01 23:54:00,
2013-06-01 19:03:00,75.7,65.3,28.82,WNW,294,3.6,3.6,70,0.00,,---,0.00,VWS V14.00,2013-06-02 00:03:00,
2013-06-01 19:04:00,75.7,65.3,28.82,WNW,292,3.6,3.6,70,0.00,,---,0.00,VWS V14.00,2013-06-02 00:04:00,
2013-06-01 19:16:00,75.4,64.9,28.85,WSW,245,3.6,3.6,70,0.00,,---,0.00,VWS V14.00,2013-06-02 00:16:00,
2013-06-01 19:17:00,75.4,64.9,28.85,West,267,3.1,3.1,70,0.00,,---,0.00,VWS V14.00,2013-06-02 00:17:00,
2013-06-01 19:22:00,75.2,65.6,28.85,SW,214,0.0,0.0,72,0.00,,---,0.00,VWS V14.00,2013-06-02 00:22:00,
2013-06-01 19:23:00,75.2,65.6,28.85,WNW,296,2.2,2.2,72,0.00,,---,0.00,VWS V14.00,2013-06-02 00:23:00,
2013-06-01 19:28:00,75.0,65.4,28.85,WSW,251,2.2,2.2,72,0.00,,---,0.00,VWS V14.00,2013-06-02 00:28:00,
2013-06-01 19:29:00,75.0,65.4,28.85,WSW,251,2.7,2.7,72,0.00,,---,0.00,VWS V14.00,2013-06-02 00:29:00,
2013-06-01 19:30:00,75.0,65.4,28.85,SSW,208,2.2,3.1,72,0.00,,---,0.00,VWS V14.00,2013-06-02 00:30:00,
2013-06-01 19:31:00,75.0,65.4,28.85,WSW,256,3.1,3.1,72,0.00,,---,0.00,VWS V14.00,2013-06-02 00:31:00,
2013-06-01 19:32:00,75.0,65.4,28.85,SW,232,2.7,3.1,72,0.00,,---,0.00,VWS V14.00,2013-06-02 00:32:00,
2013-06-01 19:33:00,75.0,65.4,28.85,SW,232,0.0,0.0,72,0.00,,---,0.00,VWS V14.00,2013-06-02 00:33:00,
2013-06-01 19:45:00,75.0,65.4,28.85,SSW,206,0.0,0.0,72,0.00,,---,0.00,VWS V14.00,2013-06-02 00:45:00,
2013-06-01 19:46:00,75.0,65.4,28.85,SW,219,0.0,0.0,72,0.00,,---,0.00,VWS V14.00,2013-06-02 00:46:00,
2013-06-01 22:07:00,70.5,68.7,28.85,WSW,243,5.8,5.8,94,0.00,,---,0.00,VWS V14.00,2013-06-02 03:07:00,
2013-06-01 22:08:00,70.5,68.7,28.85,SW,233,7.2,7.2,94,0.00,,---,0.00,VWS V14.00,2013-06-02 03:08:00,
2013-06-01 22:09:00,70.5,68.7,28.85,SW,221,4.0,7.2,94,0.00,,---,0.00,VWS V14.00,2013-06-02 03:09:00,
2013-06-01 22:10:00,70.5,68.7,28.85,WSW,240,4.0,4.9,94,0.00,,---,0.00,VWS V14.00,2013-06-02 03:10:00,
2013-06-01 22:11:00,70.5,68.7,28.85,WSW,253,3.1,5.8,94,0.00,,---,0.00,VWS V14.00,2013-06-02 03:11:00,
2013-06-01 22:12:00,70.5,68.7,28.85,SSW,202,3.6,5.8,94,0.00,,---,0.00,VWS V14.00,2013-06-02 03:12:00,
2013-06-01 22:13:00,70.5,68.7,28.85,South,183,3.6,3.6,94,0.00,,---,0.00,VWS V14.00,2013-06-02 03:13:00,
2013-06-01 22:14:00,70.5,68.7,28.85,WSW,254,6.3,8.1,94,0.00,,---,0.00,VWS V14.00,2013-06-02 03:14:00,
2013-06-01 22:15:00,70.5,68.7,28.85,West,268,3.6,6.3,94,0.00,,---,0.00,VWS V14.00,2013-06-02 03:15:00,
2013-06-01 22:16:00,70.5,68.7,28.85,WSW,248,3.1,5.4,94,0.00,,---,0.00,VWS V14.00,2013-06-02 03:16:00,
2013-06-01 22:17:00,70.5,68.7,28.85,WSW,238,3.6,6.3,94,0.00,,---,0.00,VWS V14.00,2013-06-02 03:17:00,
2013-06-01 22:18:00,70.3,67.9,28.85,WNW,293,2.7,3.6,92,0.00,,---,0.00,VWS V14.00,2013-06-02 03:18:00,
2013-06-01 22:19:00,70.3,67.9,28.85,WNW,293,2.7,2.7,92,0.00,,---,0.00,VWS V14.00,2013-06-02 03:19:00,